Time;durP1;ratioP1;P1;durP2;ratioP2;P2;SDS_P1;SDS_P2;PMS_P1;PMS_P2;Temp;Humidity;BMP_temperature;BMP_pressure;BME280_temperature;BME280_humidity;BME280_pressure;Samples;Min_cycle;Max_cycle;Signal;HPM_P1;HPM_P2
2024/01/11 00:01:18;;;;;;;32.53;17.10;;;-3.80;99.90;;;;;;5112153;28;20044;-83
2024/01/11 00:03:43;;;;;;;30.45;16.98;;;-3.90;99.90;;;;;;5125995;28;20510;-82
2024/01/11 00:06:09;;;;;;;28.65;16.65;;;-3.90;99.90;;;;;;5145129;27;20460;-83
2024/01/11 00:08:35;;;;;;;29.65;16.50;;;-3.90;99.90;;;;;;5112292;28;20044;-83
2024/01/11 00:11:00;;;;;;;29.92;16.83;;;-4.00;99.90;;;;;;5111551;28;20032;-83
2024/01/11 00:13:26;;;;;;;29.65;16.25;;;-4.00;99.90;;;;;;5126114;27;20038;-83
2024/01/11 00:15:53;;;;;;;31.95;16.50;;;-4.00;99.90;;;;;;5129143;28;20487;-83
2024/01/11 00:18:19;;;;;;;31.23;16.83;;;-4.00;99.90;;;;;;5095243;28;20083;-83
2024/01/11 00:20:44;;;;;;;30.70;16.95;;;-4.00;99.90;;;;;;5145538;27;20043;-83
2024/01/11 00:23:10;;;;;;;29.23;16.50;;;-4.00;99.90;;;;;;5108930;28;20047;-83
2024/01/11 00:25:36;;;;;;;32.13;17.00;;;-4.00;99.90;;;;;;5094913;28;20032;-83
2024/01/11 00:28:01;;;;;;;31.33;17.80;;;-4.00;99.90;;;;;;5109339;28;20089;-83
2024/01/11 00:30:27;;;;;;;32.13;17.70;;;-4.10;99.90;;;;;;5094919;28;20040;-83
2024/01/11 00:32:53;;;;;;;29.00;16.90;;;-4.10;99.90;;;;;;5110984;28;20105;-82
2024/01/11 00:35:18;;;;;;;29.40;15.77;;;-4.10;99.90;;;;;;5145217;27;20452;-83
2024/01/11 00:37:45;;;;;;;29.83;17.13;;;-4.00;99.90;;;;;;5128042;28;20046;-83
2024/01/11 00:40:11;;;;;;;34.78;17.80;;;-4.00;99.90;;;;;;5110864;28;20086;-83
2024/01/11 00:42:36;;;;;;;35.33;17.75;;;-4.10;99.90;;;;;;5128911;28;20124;-83
2024/01/11 00:45:02;;;;;;;32.88;17.83;;;-4.10;99.90;;;;;;5093476;28;20036;-83
2024/01/11 00:47:28;;;;;;;29.75;16.50;;;-4.10;99.90;;;;;;5094006;28;20047;-83
2024/01/11 00:49:53;;;;;;;33.50;17.88;;;-4.10;99.90;;;;;;5094164;28;20483;-83
2024/01/11 00:52:19;;;;;;;33.80;18.30;;;-4.10;99.90;;;;;;5111755;28;20043;-83
2024/01/11 00:54:45;;;;;;;34.28;16.67;;;-4.10;99.90;;;;;;5130103;27;20070;-83
2024/01/11 00:57:10;;;;;;;33.30;17.60;;;-4.10;99.90;;;;;;5115311;28;20559;-83
2024/01/11 00:59:36;;;;;;;29.58;16.50;;;-4.10;99.90;;;;;;5131360;27;20097;-83
2024/01/11 01:02:02;;;;;;;33.53;17.45;;;-4.10;99.90;;;;;;5132169;27;20441;-83
2024/01/11 01:04:27;;;;;;;33.05;17.77;;;-4.10;99.90;;;;;;5112694;27;20032;-83
2024/01/11 01:06:53;;;;;;;30.80;16.63;;;-4.10;99.90;;;;;;5130044;27;20081;-83
2024/01/11 01:09:19;;;;;;;31.83;17.80;;;-4.10;99.90;;;;;;5148817;27;20039;-83
2024/01/11 01:11:44;;;;;;;31.45;17.08;;;-4.10;99.90;;;;;;5149357;27;20118;-82
2024/01/11 01:14:10;;;;;;;33.53;17.10;;;-4.10;99.90;;;;;;5114574;27;20488;-82
2024/01/11 01:16:35;;;;;;;32.95;18.52;;;-4.10;99.90;;;;;;5113921;28;20071;-83
2024/01/11 01:19:01;;;;;;;30.88;16.90;;;-4.10;99.90;;;;;;5097431;28;20054;-83
2024/01/11 01:21:27;;;;;;;33.13;17.70;;;-4.10;99.90;;;;;;5097646;28;20043;-83
2024/01/11 01:23:53;;;;;;;31.77;17.73;;;-4.10;99.90;;;;;;5131848;27;20065;-83
2024/01/11 01:26:19;;;;;;;33.03;18.00;;;-4.10;99.90;;;;;;5112266;28;20041;-83
2024/01/11 01:28:45;;;;;;;31.80;17.10;;;-4.10;99.90;;;;;;5095984;28;20046;-83
2024/01/11 01:31:11;;;;;;;33.88;17.92;;;-4.10;99.90;;;;;;5097589;28;20036;-83
2024/01/11 01:33:36;;;;;;;33.95;18.92;;;-4.10;99.90;;;;;;5131365;27;20051;-83
2024/01/11 01:36:02;;;;;;;34.90;18.48;;;-4.10;99.90;;;;;;5112639;27;20035;-83
2024/01/11 01:38:30;;;;;;;32.55;17.42;;;-4.10;99.90;;;;;;5114744;28;20050;-83
2024/01/11 01:40:55;;;;;;;31.30;16.30;;;-4.10;99.90;;;;;;5096938;28;20047;-83
2024/01/11 01:43:21;;;;;;;33.85;17.95;;;-4.10;99.90;;;;;;5113569;27;20537;-83
2024/01/11 01:45:47;;;;;;;32.17;18.65;;;-4.10;99.90;;;;;;5128894;27;20035;-83
2024/01/11 01:48:13;;;;;;;34.78;18.15;;;-4.20;99.90;;;;;;5097070;28;20430;-83
2024/01/11 01:50:38;;;;;;;33.38;18.13;;;-4.20;99.90;;;;;;5130362;27;20096;-83
2024/01/11 01:53:04;;;;;;;36.35;18.25;;;-4.30;99.90;;;;;;5097227;28;20039;-83
2024/01/11 01:55:30;;;;;;;31.25;17.55;;;-4.30;99.90;;;;;;5146829;27;20035;-83
2024/01/11 01:57:57;;;;;;;31.52;17.58;;;-4.30;99.90;;;;;;5113161;28;20043;-83
2024/01/11 02:00:23;;;;;;;32.05;17.92;;;-4.30;99.90;;;;;;5112603;28;20595;-83
2024/01/11 02:02:52;;;;;;;35.30;18.15;;;-4.30;99.90;;;;;;5096728;28;20118;-84
2024/01/11 02:05:18;;;;;;;33.78;18.15;;;-4.30;99.90;;;;;;5112646;28;20065;-83
2024/01/11 02:07:44;;;;;;;34.70;18.75;;;-4.30;99.90;;;;;;5095956;28;20072;-83
2024/01/11 02:10:10;;;;;;;34.13;17.33;;;-4.40;99.90;;;;;;5096082;28;20047;-83
2024/01/11 02:12:39;;;;;;;35.70;19.00;;;-4.40;99.90;;;;;;5113547;28;20032;-83
2024/01/11 02:15:05;;;;;;;33.85;17.55;;;-4.40;99.90;;;;;;5113255;28;20036;-83
2024/01/11 02:17:31;;;;;;;33.60;17.92;;;-4.30;99.90;;;;;;5112559;28;20518;-83
2024/01/11 02:19:57;;;;;;;32.90;17.70;;;-4.30;99.90;;;;;;5112358;28;20034;-83
2024/01/11 02:22:29;;;;;;;35.92;18.77;;;-4.20;99.90;;;;;;5092029;28;20032;-84
2024/01/11 02:24:54;;;;;;;38.13;19.45;;;-4.20;99.90;;;;;;5096320;28;20043;-83
2024/01/11 02:27:20;;;;;;;34.25;19.20;;;-4.30;99.90;;;;;;5112541;27;20035;-83
2024/01/11 02:29:46;;;;;;;36.05;18.83;;;-4.30;99.90;;;;;;5113492;28;20442;-83
2024/01/11 02:32:12;;;;;;;37.35;17.65;;;-4.30;99.90;;;;;;5112495;28;20442;-83
2024/01/11 02:34:37;;;;;;;34.67;18.77;;;-4.30;99.90;;;;;;5112774;28;20058;-83
2024/01/11 02:37:05;;;;;;;33.22;17.52;;;-4.30;99.90;;;;;;5129625;27;20483;-83
2024/01/11 02:39:31;;;;;;;35.53;18.83;;;-4.30;99.90;;;;;;5095472;28;20044;-83
2024/01/11 02:41:59;;;;;;;33.92;18.42;;;-4.40;99.90;;;;;;5095782;28;20503;-83
2024/01/11 02:44:25;;;;;;;37.25;19.13;;;-4.30;99.90;;;;;;5111784;28;20089;-83
2024/01/11 02:46:51;;;;;;;34.03;18.52;;;-4.40;99.90;;;;;;5096207;28;20071;-83
2024/01/11 02:49:16;;;;;;;31.73;17.75;;;-4.50;99.90;;;;;;5129124;27;20491;-83
2024/01/11 02:51:42;;;;;;;33.65;18.20;;;-4.50;99.90;;;;;;5112563;28;20040;-83
2024/01/11 02:54:08;;;;;;;36.40;18.98;;;-4.50;99.90;;;;;;5112692;27;20114;-83
2024/01/11 02:56:33;;;;;;;37.88;19.38;;;-4.50;99.90;;;;;;5129532;27;20061;-83
2024/01/11 02:58:59;;;;;;;34.65;18.88;;;-4.60;99.90;;;;;;5145906;27;20055;-83
2024/01/11 03:01:25;;;;;;;37.90;19.10;;;-4.60;99.90;;;;;;5095967;28;20073;-83
2024/01/11 03:03:50;;;;;;;33.28;18.23;;;-4.60;99.90;;;;;;5095016;28;20172;-83
2024/01/11 03:06:21;;;;;;;35.63;18.83;;;-4.60;99.90;;;;;;5146213;27;20044;-83
2024/01/11 03:08:48;;;;;;;36.30;18.80;;;-4.60;99.90;;;;;;5094946;28;20042;-83
2024/01/11 03:11:14;;;;;;;38.25;19.83;;;-4.60;99.90;;;;;;5095203;28;20046;-83
2024/01/11 03:13:39;;;;;;;36.08;19.30;;;-4.70;99.90;;;;;;5129157;27;20039;-83
2024/01/11 03:16:05;;;;;;;39.63;19.75;;;-4.80;99.90;;;;;;5146074;27;20042;-83
2024/01/11 03:18:31;;;;;;;36.28;18.27;;;-4.70;99.90;;;;;;5112636;28;20035;-83
2024/01/11 03:20:57;;;;;;;36.42;19.15;;;-4.80;99.90;;;;;;5128458;27;20079;-83
2024/01/11 03:23:22;;;;;;;34.47;20.00;;;-4.80;99.90;;;;;;5111651;28;20039;-83
2024/01/11 03:25:48;;;;;;;34.92;17.88;;;-4.80;99.90;;;;;;5094534;28;20042;-83
2024/01/11 03:28:14;;;;;;;34.13;18.85;;;-4.80;99.90;;;;;;5112660;28;20412;-83
2024/01/11 03:30:39;;;;;;;33.83;18.17;;;-4.80;99.90;;;;;;5144182;27;20031;-83
2024/01/11 03:33:05;;;;;;;34.13;19.02;;;-4.80;99.90;;;;;;5127739;27;20066;-83
2024/01/11 03:35:31;;;;;;;32.60;17.52;;;-4.80;99.90;;;;;;5128496;27;20126;-84
2024/01/11 03:37:56;;;;;;;34.70;18.95;;;-4.80;99.90;;;;;;5129594;27;20054;-83
2024/01/11 03:40:22;;;;;;;36.30;18.95;;;-4.70;99.90;;;;;;5127632;28;20047;-83
2024/01/11 03:42:48;;;;;;;34.10;18.13;;;-4.70;99.90;;;;;;5095599;28;20047;-83
2024/01/11 03:45:17;;;;;;;33.00;18.08;;;-4.70;99.90;;;;;;5093216;28;20047;-83
2024/01/11 03:47:43;;;;;;;36.95;18.50;;;-4.70;99.90;;;;;;5095392;28;20035;-83
2024/01/11 03:50:09;;;;;;;36.25;19.40;;;-4.60;99.90;;;;;;5128413;27;20100;-83
2024/01/11 03:52:34;;;;;;;36.28;18.27;;;-4.60;99.90;;;;;;5095342;28;20028;-84
2024/01/11 03:55:00;;;;;;;30.58;16.98;;;-4.60;99.90;;;;;;5093452;28;20040;-83
2024/01/11 03:57:25;;;;;;;36.70;18.88;;;-4.60;99.90;;;;;;5112330;28;20040;-83
2024/01/11 03:59:51;;;;;;;37.88;18.50;;;-4.70;99.90;;;;;;5129376;27;20048;-83
2024/01/11 04:02:17;;;;;;;32.25;17.45;;;-4.80;99.90;;;;;;5126283;28;20047;-84
2024/01/11 04:04:42;;;;;;;35.05;17.85;;;-4.70;99.90;;;;;;5121757;27;20050;-83
2024/01/11 04:07:08;;;;;;;35.63;18.38;;;-4.60;99.90;;;;;;5109960;28;20802;-83
2024/01/11 04:09:36;;;;;;;34.47;18.20;;;-4.60;99.90;;;;;;5083355;28;20055;-83
2024/01/11 04:12:03;;;;;;;35.15;17.83;;;-4.60;99.90;;;;;;5114820;28;20050;-83
2024/01/11 04:14:29;;;;;;;38.33;20.08;;;-4.60;99.90;;;;;;5145340;27;20496;-83
2024/01/11 04:16:54;;;;;;;35.78;18.90;;;-4.60;99.90;;;;;;5087340;28;20127;-83
2024/01/11 04:19:20;;;;;;;34.28;17.55;;;-4.60;99.90;;;;;;5087873;28;20511;-83
2024/01/11 04:21:45;;;;;;;35.72;18.92;;;-4.60;99.90;;;;;;5109247;28;20035;-83
2024/01/11 04:24:11;;;;;;;36.00;19.25;;;-4.70;99.90;;;;;;5094788;28;20028;-84
2024/01/11 04:26:37;;;;;;;38.15;20.50;;;-4.70;99.90;;;;;;5112272;28;20052;-83
2024/01/11 04:29:03;;;;;;;36.25;19.63;;;-4.80;99.90;;;;;;5097465;28;20118;-83
2024/01/11 04:31:28;;;;;;;36.80;18.02;;;-4.80;99.90;;;;;;5131150;27;20036;-83
2024/01/11 04:33:54;;;;;;;39.85;20.52;;;-4.80;99.90;;;;;;5098145;28;20380;-84
2024/01/11 04:36:20;;;;;;;36.40;19.00;;;-4.80;99.90;;;;;;5094800;28;20763;-84
2024/01/11 04:38:45;;;;;;;38.10;19.58;;;-4.80;99.90;;;;;;5121980;27;20065;-83
2024/01/11 04:41:12;;;;;;;33.65;19.45;;;-4.80;99.90;;;;;;5149949;27;20126;-83
2024/01/11 04:43:42;;;;;;;35.80;20.35;;;-4.80;99.90;;;;;;5094841;28;20077;-83
2024/01/11 04:46:19;;;;;;;36.13;18.63;;;-4.80;99.90;;;;;;5084277;27;20040;-83
2024/01/11 04:48:45;;;;;;;36.53;20.27;;;-4.80;99.90;;;;;;5114492;27;20043;-83
2024/01/11 04:51:12;;;;;;;38.65;19.45;;;-4.90;99.90;;;;;;5124900;27;20447;-83
2024/01/11 04:53:39;;;;;;;38.45;20.77;;;-4.90;99.90;;;;;;5106327;27;20039;-83
2024/01/11 04:56:07;;;;;;;37.55;20.13;;;-4.90;99.90;;;;;;5106793;27;20043;-83
2024/01/11 04:58:33;;;;;;;40.65;20.55;;;-4.90;99.90;;;;;;5129496;27;20063;-83
2024/01/11 05:00:59;;;;;;;40.28;20.45;;;-4.90;99.90;;;;;;5109371;27;20058;-83
2024/01/11 05:03:25;;;;;;;37.90;19.98;;;-4.90;99.90;;;;;;5095342;27;20384;-83
2024/01/11 05:05:51;;;;;;;37.05;18.08;;;-4.90;99.90;;;;;;5095608;27;20039;-83
2024/01/11 05:08:16;;;;;;;37.25;18.50;;;-4.80;99.90;;;;;;5112996;27;20039;-84
2024/01/11 05:10:42;;;;;;;37.83;19.52;;;-4.80;99.90;;;;;;5100133;27;20483;-83
2024/01/11 05:13:08;;;;;;;37.13;19.23;;;-4.70;99.90;;;;;;5148497;27;20044;-83
2024/01/11 05:15:34;;;;;;;39.38;20.58;;;-4.60;99.90;;;;;;5098119;28;20039;-83
2024/01/11 05:18:00;;;;;;;36.17;19.90;;;-4.60;99.90;;;;;;5097717;28;20047;-83
2024/01/11 05:20:26;;;;;;;39.45;20.63;;;-4.60;99.90;;;;;;5149335;27;20112;-84
2024/01/11 05:22:51;;;;;;;35.95;19.10;;;-4.50;99.90;;;;;;5131941;27;20036;-83
2024/01/11 05:25:17;;;;;;;39.33;20.27;;;-4.40;99.90;;;;;;5147212;27;20442;-84
2024/01/11 05:27:42;;;;;;;39.15;20.27;;;-4.40;99.90;;;;;;5148465;27;20035;-84
2024/01/11 05:30:09;;;;;;;40.28;20.85;;;-4.30;99.90;;;;;;5149158;27;20064;-84
2024/01/11 05:32:35;;;;;;;37.67;19.77;;;-4.20;99.90;;;;;;5148954;27;20039;-83
2024/01/11 05:35:00;;;;;;;43.38;21.25;;;-4.20;99.90;;;;;;5113509;27;20032;-84
2024/01/11 05:37:26;;;;;;;39.05;20.55;;;-4.20;99.90;;;;;;5125910;27;20032;-84
2024/01/11 05:39:51;;;;;;;39.78;19.23;;;-4.20;99.90;;;;;;5127715;27;20036;-82
2024/01/11 05:42:17;;;;;;;39.47;21.33;;;-4.10;99.90;;;;;;5124045;27;20048;-83
2024/01/11 05:44:43;;;;;;;42.67;22.27;;;-4.00;99.90;;;;;;5131998;27;20087;-84
2024/01/11 05:47:09;;;;;;;44.25;21.55;;;-3.90;99.90;;;;;;5124214;27;20040;-83
2024/01/11 05:49:35;;;;;;;41.15;21.25;;;-3.90;99.90;;;;;;5090400;27;20038;-84
2024/01/11 05:52:00;;;;;;;43.30;22.05;;;-3.90;99.90;;;;;;5110907;27;20143;-83
2024/01/11 05:54:28;;;;;;;44.33;22.20;;;-3.80;99.90;;;;;;5073843;27;20681;-84
2024/01/11 05:56:56;;;;;;;38.55;19.90;;;-3.80;99.90;;;;;;5106126;27;20071;-84
2024/01/11 05:59:22;;;;;;;40.45;20.35;;;-3.70;99.90;;;;;;5090427;27;20119;-83
2024/01/11 06:01:47;;;;;;;39.58;20.98;;;-3.60;99.90;;;;;;5095112;27;20047;-84
2024/01/11 06:04:13;;;;;;;38.72;21.25;;;-3.60;99.90;;;;;;5094918;27;20127;-84
2024/01/11 06:06:40;;;;;;;41.65;21.05;;;-3.60;99.90;;;;;;5109388;27;20059;-84
2024/01/11 06:09:06;;;;;;;39.83;20.33;;;-3.50;99.90;;;;;;5090266;27;20036;-84
2024/01/11 06:11:31;;;;;;;38.45;19.00;;;-3.40;99.90;;;;;;5113700;27;20065;-83
2024/01/11 06:13:57;;;;;;;42.53;21.67;;;-3.30;99.90;;;;;;5123646;27;20034;-84
2024/01/11 06:16:23;;;;;;;38.17;19.75;;;-3.30;99.90;;;;;;5125640;27;20403;-84
2024/01/11 06:18:49;;;;;;;37.95;20.40;;;-3.30;99.90;;;;;;5095311;28;20047;-84
2024/01/11 06:21:16;;;;;;;40.75;21.73;;;-3.30;99.90;;;;;;5096885;28;20046;-84
2024/01/11 06:23:43;;;;;;;40.00;21.40;;;-3.20;99.90;;;;;;5096720;28;20506;-84
2024/01/11 06:26:09;;;;;;;38.53;20.58;;;-3.20;99.90;;;;;;5112604;27;20043;-84
2024/01/11 06:28:34;;;;;;;39.55;21.10;;;-3.20;99.90;;;;;;5096869;28;20113;-84
2024/01/11 06:31:00;;;;;;;40.10;20.55;;;-3.10;99.90;;;;;;5147807;27;20043;-84
2024/01/11 06:33:25;;;;;;;44.00;21.83;;;-3.10;99.90;;;;;;5113862;28;20039;-84
2024/01/11 06:35:51;;;;;;;38.28;19.77;;;-3.00;99.90;;;;;;5095974;28;20534;-84
2024/01/11 06:38:17;;;;;;;38.83;20.08;;;-3.00;99.90;;;;;;5146779;27;20043;-85
2024/01/11 06:40:43;;;;;;;39.22;20.70;;;-3.00;99.90;;;;;;5147878;27;20399;-85
2024/01/11 06:43:08;;;;;;;38.38;20.52;;;-2.90;99.90;;;;;;5113010;28;20484;-85
2024/01/11 06:45:35;;;;;;;42.58;21.33;;;-2.90;99.90;;;;;;5130449;27;20031;-84
2024/01/11 06:48:00;;;;;;;39.05;21.58;;;-2.80;99.90;;;;;;5129387;27;20036;-84
2024/01/11 06:50:26;;;;;;;39.95;20.23;;;-2.80;99.90;;;;;;5096214;28;20062;-84
2024/01/11 06:52:52;;;;;;;39.35;20.48;;;-2.70;99.90;;;;;;5094843;27;20047;-84
2024/01/11 06:55:17;;;;;;;41.22;20.38;;;-2.70;99.90;;;;;;5089895;27;20039;-84
2024/01/11 06:57:46;;;;;;;39.28;19.40;;;-2.70;99.90;;;;;;5088830;27;20070;-84
2024/01/11 07:00:13;;;;;;;38.90;18.70;;;-2.60;99.90;;;;;;5074801;28;20666;-84
2024/01/11 07:02:40;;;;;;;41.10;20.52;;;-2.60;99.90;;;;;;5126864;27;20054;-84
2024/01/11 07:05:06;;;;;;;39.60;21.15;;;-2.60;99.90;;;;;;5121284;27;20035;-84
2024/01/11 07:07:32;;;;;;;36.47;20.52;;;-2.60;99.90;;;;;;5122323;27;20438;-84
2024/01/11 07:09:58;;;;;;;39.38;21.10;;;-2.50;99.90;;;;;;5089694;27;20035;-84
2024/01/11 07:12:25;;;;;;;41.67;22.42;;;-2.50;99.90;;;;;;5137163;27;20031;-85
2024/01/11 07:14:51;;;;;;;41.20;20.80;;;-2.50;99.90;;;;;;5111735;27;20433;-84
2024/01/11 07:17:17;;;;;;;40.50;21.95;;;-2.50;99.90;;;;;;5131838;27;20039;-85
2024/01/11 07:19:43;;;;;;;45.05;22.73;;;-2.50;99.90;;;;;;5096909;28;20050;-84
2024/01/11 07:22:08;;;;;;;38.88;20.58;;;-2.50;99.90;;;;;;5095597;28;20036;-85
2024/01/11 07:24:37;;;;;;;41.25;21.60;;;-2.50;99.90;;;;;;5112542;28;20040;-85
2024/01/11 07:27:12;;;;;;;39.10;20.73;;;-2.50;99.90;;;;;;5093838;28;20032;-85
2024/01/11 07:29:38;;;;;;;41.83;22.52;;;-2.50;99.90;;;;;;5105565;28;20435;-84
2024/01/11 07:32:04;;;;;;;37.03;20.05;;;-2.50;99.90;;;;;;5095500;28;20575;-85
2024/01/11 07:34:29;;;;;;;39.83;20.58;;;-2.40;99.90;;;;;;5112306;28;20122;-85
2024/01/11 07:36:56;;;;;;;46.25;24.00;;;-2.40;99.90;;;;;;5093872;28;20047;-85
2024/01/11 07:39:22;;;;;;;42.05;21.65;;;-2.30;99.90;;;;;;5095562;28;20051;-85
2024/01/11 07:41:48;;;;;;;44.88;22.92;;;-2.30;99.90;;;;;;5094280;28;20044;-85
2024/01/11 07:44:14;;;;;;;38.78;21.45;;;-2.30;99.90;;;;;;5092499;28;20036;-85
2024/01/11 07:46:40;;;;;;;39.15;20.75;;;-2.30;99.90;;;;;;5098900;28;20445;-84
2024/01/11 07:49:06;;;;;;;44.85;22.30;;;-2.30;99.90;;;;;;5125424;27;20040;-85
2024/01/11 07:51:32;;;;;;;42.20;20.85;;;-2.30;99.90;;;;;;5106705;28;20044;-85
2024/01/11 07:53:58;;;;;;;42.03;21.55;;;-2.20;99.90;;;;;;5092230;28;20042;-84
2024/01/11 07:56:24;;;;;;;39.10;21.33;;;-2.20;99.90;;;;;;5123468;27;20040;-84
2024/01/11 07:58:50;;;;;;;40.08;21.00;;;-2.10;99.90;;;;;;5076119;28;20067;-84
2024/01/11 08:01:16;;;;;;;40.15;21.13;;;-2.10;99.90;;;;;;5106250;27;20897;-84
2024/01/11 08:03:44;;;;;;;41.63;22.77;;;-2.10;99.90;;;;;;5113116;27;20028;-84
2024/01/11 08:06:10;;;;;;;36.70;19.10;;;-2.10;99.90;;;;;;5096455;27;20057;-84
2024/01/11 08:08:38;;;;;;;43.47;22.90;;;-2.00;99.90;;;;;;5115341;27;20644;-84
2024/01/11 08:11:05;;;;;;;42.20;22.10;;;-2.00;99.90;;;;;;5126869;27;20372;-85
2024/01/11 08:13:31;;;;;;;42.08;21.30;;;-2.00;99.90;;;;;;5075652;27;20495;-84
2024/01/11 08:15:57;;;;;;;40.25;21.35;;;-2.00;99.90;;;;;;5112081;27;20524;-84
2024/01/11 08:18:23;;;;;;;39.78;21.80;;;-2.00;99.90;;;;;;5081290;27;20039;-84
2024/01/11 08:20:49;;;;;;;38.15;21.38;;;-1.90;99.90;;;;;;5112078;27;20043;-84
2024/01/11 08:23:15;;;;;;;37.40;19.90;;;-1.90;99.90;;;;;;5094769;27;20047;-84
2024/01/11 08:25:40;;;;;;;38.42;20.35;;;-1.90;99.90;;;;;;5092505;27;20047;-84
2024/01/11 08:28:07;;;;;;;36.63;19.25;;;-1.80;99.90;;;;;;5127337;27;20036;-84
2024/01/11 08:30:32;;;;;;;36.53;19.77;;;-1.80;99.90;;;;;;5103111;27;20043;-83
2024/01/11 08:32:58;;;;;;;36.55;21.08;;;-1.70;99.90;;;;;;5092372;27;20055;-84
2024/01/11 08:35:24;;;;;;;38.28;20.70;;;-1.70;99.90;;;;;;5086862;28;20039;-84
2024/01/11 08:37:49;;;;;;;38.97;20.83;;;-1.70;99.90;;;;;;5125910;27;20036;-84
2024/01/11 08:40:15;;;;;;;36.53;20.13;;;-1.60;99.90;;;;;;5086995;28;20082;-84
2024/01/11 08:42:42;;;;;;;39.22;21.30;;;-1.60;99.90;;;;;;5116919;27;20044;-84
2024/01/11 08:45:08;;;;;;;38.40;19.10;;;-1.50;99.90;;;;;;5102009;28;20074;-84
2024/01/11 08:47:35;;;;;;;39.03;19.48;;;-1.50;99.90;;;;;;5096338;28;20115;-84
2024/01/11 08:50:01;;;;;;;34.40;18.98;;;-1.50;99.90;;;;;;5111178;27;20474;-84
2024/01/11 08:52:27;;;;;;;39.05;20.08;;;-1.40;99.90;;;;;;5114655;28;20042;-84
2024/01/11 08:54:52;;;;;;;37.92;20.27;;;-1.40;99.90;;;;;;5114262;28;20027;-83
2024/01/11 08:57:18;;;;;;;37.20;20.02;;;-1.40;99.90;;;;;;5124113;27;20039;-83
2024/01/11 08:59:44;;;;;;;38.15;20.45;;;-1.30;99.90;;;;;;5094806;28;20058;-83
2024/01/11 09:02:10;;;;;;;37.88;20.42;;;-1.30;99.90;;;;;;5111751;28;20126;-83
2024/01/11 09:04:36;;;;;;;35.83;19.60;;;-1.30;99.90;;;;;;5113920;28;20035;-83
2024/01/11 09:07:02;;;;;;;35.13;18.75;;;-1.30;99.90;;;;;;5112347;28;20491;-83
2024/01/11 09:09:27;;;;;;;37.22;20.45;;;-1.20;99.90;;;;;;5114327;28;20403;-83
2024/01/11 09:11:53;;;;;;;33.90;18.60;;;-1.20;99.90;;;;;;5147436;27;20039;-83
2024/01/11 09:14:19;;;;;;;36.67;19.52;;;-1.10;99.90;;;;;;5111771;28;20403;-83
2024/01/11 09:16:45;;;;;;;35.88;20.13;;;-1.10;99.90;;;;;;5113801;28;20147;-83
2024/01/11 09:19:11;;;;;;;34.78;19.60;;;-1.10;99.90;;;;;;5096130;28;20046;-83
2024/01/11 09:21:37;;;;;;;38.15;19.90;;;-1.10;99.90;;;;;;5095400;28;20123;-82
2024/01/11 09:24:03;;;;;;;34.70;18.17;;;-1.10;99.90;;;;;;5112386;27;20071;-83
2024/01/11 09:26:29;;;;;;;35.45;18.52;;;-1.10;99.90;;;;;;5113407;28;20043;-82
2024/01/11 09:28:54;;;;;;;39.08;20.23;;;-1.10;99.90;;;;;;5094397;28;20046;-82
2024/01/11 09:31:20;;;;;;;33.70;18.60;;;-1.00;99.90;;;;;;5128063;27;20032;-82
2024/01/11 09:33:45;;;;;;;34.72;19.10;;;-1.00;99.90;;;;;;5112298;28;20408;-82
2024/01/11 09:36:13;;;;;;;34.45;19.00;;;-0.90;99.90;;;;;;5113436;28;20039;-87
2024/01/11 09:38:38;;;;;;;33.58;17.48;;;-0.90;99.90;;;;;;5113844;28;20437;-82
2024/01/11 09:41:08;;;;;;;35.22;17.33;;;-0.80;99.90;;;;;;5130263;27;20080;-81
2024/01/11 09:43:35;;;;;;;35.08;18.63;;;-0.70;99.90;;;;;;5095393;28;20071;-82
2024/01/11 09:46:05;;;;;;;32.65;18.70;;;-0.60;99.90;;;;;;5094855;28;20467;-82
2024/01/11 09:48:36;;;;;;;34.33;17.95;;;-0.50;99.90;;;;;;5105208;28;20035;-81
2024/01/11 09:51:05;;;;;;;37.63;18.85;;;-0.40;99.90;;;;;;5130263;27;20039;-81
2024/01/11 09:53:33;;;;;;;32.78;17.33;;;-0.40;99.90;;;;;;5092983;28;20507;-81
2024/01/11 09:56:00;;;;;;;31.25;17.05;;;-0.30;99.90;;;;;;5105799;27;20031;-83
2024/01/11 09:58:26;;;;;;;33.17;17.77;;;-0.30;99.90;;;;;;5095656;28;20051;-81
2024/01/11 10:00:56;;;;;;;34.03;19.05;;;-0.20;99.90;;;;;;5113311;28;20100;-81
2024/01/11 10:03:24;;;;;;;32.60;17.58;;;-0.20;99.90;;;;;;5094594;28;20035;-81
2024/01/11 10:05:52;;;;;;;32.17;17.38;;;-0.10;99.90;;;;;;5105773;28;20498;-81
2024/01/11 10:08:21;;;;;;;29.33;16.17;;;0.00;99.90;;;;;;5112305;28;20035;-81
2024/01/11 10:10:46;;;;;;;33.22;18.73;;;0.00;99.90;;;;;;5147786;27;20092;-81
2024/01/11 10:13:12;;;;;;;31.88;16.75;;;0.00;99.90;;;;;;5093105;28;20036;-81
2024/01/11 10:15:38;;;;;;;35.17;18.35;;;0.00;99.90;;;;;;5091353;28;20032;-81
2024/01/11 10:18:04;;;;;;;32.67;17.73;;;0.00;99.90;;;;;;5092828;28;20071;-81
2024/01/11 10:20:31;;;;;;;33.17;17.35;;;0.00;99.90;;;;;;5144593;27;20123;-81
2024/01/11 10:22:57;;;;;;;32.55;18.42;;;0.10;99.90;;;;;;5078787;28;20035;-81
2024/01/11 10:25:23;;;;;;;31.38;16.15;;;0.00;99.90;;;;;;5124567;27;20196;-81
2024/01/11 10:27:49;;;;;;;30.67;16.42;;;0.00;99.90;;;;;;5083083;28;20044;-80
2024/01/11 10:30:16;;;;;;;31.92;17.77;;;0.20;99.90;;;;;;5109711;27;20036;-81
2024/01/11 10:32:43;;;;;;;32.72;18.08;;;0.20;99.90;;;;;;5109921;28;20084;-81
2024/01/11 10:35:09;;;;;;;34.88;19.05;;;0.20;99.90;;;;;;5094721;28;20042;-81
2024/01/11 10:37:36;;;;;;;34.08;18.58;;;0.10;99.90;;;;;;5094523;28;20031;-81
2024/01/11 10:40:15;;;;;;;33.33;17.77;;;0.10;99.90;;;;;;5106141;27;20046;-80
2024/01/11 10:42:54;;;;;;;33.53;18.10;;;0.10;99.90;;;;;;5091581;28;20024;-81
2024/01/11 10:45:20;;;;;;;32.47;18.48;;;0.10;99.90;;;;;;5122387;27;20173;-81
2024/01/11 10:47:58;;;;;;;32.95;18.45;;;0.20;99.90;;;;;;5093950;28;20027;-81
2024/01/11 10:50:25;;;;;;;33.65;18.42;;;0.20;99.90;;;;;;5112669;27;20027;-81
2024/01/11 10:53:12;;;;;;;33.17;17.30;;;0.20;99.90;;;;;;5098920;28;20031;-81
2024/01/11 10:55:39;;;;;;;33.72;19.40;;;0.20;99.90;;;;;;5127950;27;20066;-81
2024/01/11 10:58:06;;;;;;;35.35;17.40;;;0.20;99.90;;;;;;5089940;27;20057;-80
2024/01/11 11:00:34;;;;;;;33.47;18.63;;;0.30;99.90;;;;;;5115148;27;20044;-80
2024/01/11 11:03:00;;;;;;;32.13;18.58;;;0.30;99.90;;;;;;5096242;28;20052;-80
2024/01/11 11:05:28;;;;;;;32.30;17.65;;;0.30;99.90;;;;;;5097765;28;20400;-81
2024/01/11 11:07:55;;;;;;;29.90;16.38;;;0.30;99.90;;;;;;5093767;28;20180;-80
2024/01/11 11:10:22;;;;;;;31.80;17.10;;;0.40;99.90;;;;;;5092373;28;20496;-81
2024/01/11 11:12:48;;;;;;;30.63;17.92;;;0.50;99.90;;;;;;5114682;27;20656;-80
2024/01/11 11:15:15;;;;;;;34.00;17.60;;;0.50;99.90;;;;;;5135703;27;20047;-80
2024/01/11 11:17:43;;;;;;;32.25;16.25;;;0.50;99.90;;;;;;5124745;27;20512;-81
2024/01/11 11:20:11;;;;;;;29.65;16.58;;;0.60;99.90;;;;;;5086792;28;20036;-80
2024/01/11 11:22:39;;;;;;;31.50;16.55;;;0.60;99.90;;;;;;5136546;27;20039;-80
2024/01/11 11:25:25;;;;;;;30.13;16.98;;;0.70;99.90;;;;;;5119871;27;20036;-80
2024/01/11 11:27:50;;;;;;;30.42;16.92;;;0.60;99.90;;;;;;5094748;27;20035;-80
2024/01/11 11:30:20;;;;;;;30.52;17.10;;;0.70;99.90;;;;;;5100948;27;20547;-80
2024/01/11 11:32:46;;;;;;;27.17;15.63;;;0.70;99.90;;;;;;5132449;27;20039;-80
2024/01/11 11:35:12;;;;;;;26.92;15.52;;;0.70;99.90;;;;;;5108284;28;20043;-79
2024/01/11 11:37:38;;;;;;;26.85;15.63;;;0.70;99.90;;;;;;5111667;28;20035;-80
2024/01/11 11:40:13;;;;;;;27.92;17.05;;;0.70;99.90;;;;;;5110153;28;20590;-79
2024/01/11 11:42:40;;;;;;;27.75;16.30;;;0.70;99.90;;;;;;5127989;27;20059;-80
2024/01/11 11:45:10;;;;;;;28.15;15.95;;;0.80;99.90;;;;;;5126168;27;20043;-79
2024/01/11 11:47:38;;;;;;;29.80;16.77;;;0.80;99.90;;;;;;5086752;28;20036;-80
2024/01/11 11:50:05;;;;;;;26.05;14.27;;;0.80;99.90;;;;;;5104566;28;20084;-79
2024/01/11 11:52:34;;;;;;;25.05;15.02;;;0.90;99.90;;;;;;5106580;28;20065;-79
2024/01/11 11:55:00;;;;;;;27.58;15.25;;;0.90;99.90;;;;;;5093530;28;20043;-79
2024/01/11 11:57:27;;;;;;;26.85;14.75;;;1.00;99.90;;;;;;5103000;28;20035;-80
2024/01/11 12:00:05;;;;;;;30.90;15.82;;;1.00;99.90;;;;;;5111969;28;20051;-79
2024/01/11 12:02:31;;;;;;;26.05;14.45;;;1.10;99.90;;;;;;5109224;28;20043;-79
2024/01/11 12:04:57;;;;;;;29.50;15.07;;;1.20;99.90;;;;;;5100912;28;20071;-79
2024/01/11 12:07:23;;;;;;;25.05;14.80;;;1.10;99.90;;;;;;5086359;28;20468;-79
2024/01/11 12:09:50;;;;;;;26.38;14.07;;;1.10;99.90;;;;;;5105988;28;20038;-79
2024/01/11 12:12:17;;;;;;;27.20;13.98;;;1.10;99.90;;;;;;5128132;28;20032;-79
2024/01/11 12:14:43;;;;;;;27.00;15.00;;;1.10;99.90;;;;;;5094616;28;20044;-79
2024/01/11 12:17:09;;;;;;;23.80;13.13;;;1.10;99.90;;;;;;5127829;28;20089;-79
2024/01/11 12:19:35;;;;;;;26.27;14.73;;;1.30;99.90;;;;;;5110388;28;20043;-79
2024/01/11 12:22:01;;;;;;;24.05;14.45;;;1.30;99.90;;;;;;5112306;28;20036;-79
2024/01/11 12:24:27;;;;;;;27.30;14.85;;;1.20;99.90;;;;;;5104267;28;20560;-79